Time;durP1;ratioP1;P1;durP2;ratioP2;P2;SDS_P1;SDS_P2;PMS_P1;PMS_P2;Temp;Humidity;BMP_temperature;BMP_pressure;BME280_temperature;BME280_humidity;BME280_pressure;Samples;Min_cycle;Max_cycle;Signal;HPM_P1;HPM_P2
2023/12/10 00:02:24;;;;;;;;;;;8.20;6.10;;;;;;5015530;28;20309;-73
2023/12/10 00:07:52;;;;;;;;;;;8.30;4.60;;;;;;5015433;28;19948;-79
2023/12/10 00:13:21;;;;;;;;;;;8.20;3.70;;;;;;5006736;28;19921;-79
2023/12/10 00:18:49;;;;;;;;;;;8.10;3.40;;;;;;5015579;28;19921;-73
2023/12/10 00:21:20;;;;;;;;;;;8.10;3.20;;;;;;5016122;28;19913;-73
2023/12/10 00:23:46;;;;;;;;;;;8.00;3.40;;;;;;5014952;28;19910;-74
2023/12/10 00:26:12;;;;;;;;;;;;;;;;;;5015083;28;20063;-73
2023/12/10 00:28:37;;;;;;;;;;;7.90;3.70;;;;;;5015232;28;19941;-73
2023/12/10 00:31:07;;;;;;;;;;;7.80;6.10;;;;;;5014462;28;19913;-73
2023/12/10 00:33:44;;;;;;;;;;;7.70;8.60;;;;;;5014249;28;19924;-73
2023/12/10 00:39:13;;;;;;;;;;;7.70;11.90;;;;;;5027899;28;20049;-79
2023/12/10 00:45:14;;;;;;;;;;;7.70;10.00;;;;;;4995499;28;19917;-78
2023/12/10 00:47:40;;;;;;;;;;;7.70;12.40;;;;;;5014273;28;19924;-78
2023/12/10 00:50:06;;;;;;;;;;;7.70;12.00;;;;;;5017296;28;19913;-78
2023/12/10 00:55:34;;;;;;;;;;;7.70;12.00;;;;;;4994988;28;19961;-79
2023/12/10 01:01:02;;;;;;;;;;;7.70;12.80;;;;;;5013930;28;20003;-78
2023/12/10 01:04:02;;;;;;;;;;;7.70;12.70;;;;;;5030134;28;19967;-79
2023/12/10 01:06:32;;;;;;;;;;;7.70;12.00;;;;;;5009161;28;20016;-73
2023/12/10 01:09:02;;;;;;;;;;;7.70;12.50;;;;;;5019688;28;19996;-73
2023/12/10 01:11:28;;;;;;;;;;;7.80;12.10;;;;;;5033213;28;19910;-73
2023/12/10 01:13:57;;;;;;;;;;;7.70;10.80;;;;;;5021449;28;19917;-73
2023/12/10 01:16:22;;;;;;;;;;;7.80;9.10;;;;;;5017541;28;19913;-73
2023/12/10 01:18:57;;;;;;;;;;;7.90;6.80;;;;;;5023469;28;19932;-73
2023/12/10 01:21:22;;;;;;;;;;;8.00;5.00;;;;;;5023516;28;20368;-73
2023/12/10 01:24:03;;;;;;;;;;;8.00;2.10;;;;;;5017987;28;19913;-73
2023/12/10 01:26:32;;;;;;;;;;;8.10;1.20;;;;;;5014175;28;19921;-73
2023/12/10 01:28:58;;;;;;;;;;;8.10;1.00;;;;;;5014197;28;19972;-73
2023/12/10 01:31:25;;;;;;;;;;;8.10;1.00;;;;;;5013191;28;19918;-73
2023/12/10 01:33:50;;;;;;;;;;;8.20;1.00;;;;;;5014041;28;19963;-73
2023/12/10 01:36:27;;;;;;;;;;;8.20;1.00;;;;;;5014692;28;20351;-73
2023/12/10 01:38:52;;;;;;;;;;;8.30;1.00;;;;;;4994304;28;19910;-73
2023/12/10 01:41:18;;;;;;;;;;;8.30;1.00;;;;;;5016736;28;19914;-73
2023/12/10 01:43:44;;;;;;;;;;;8.30;1.00;;;;;;5018515;28;19909;-73
2023/12/10 01:46:15;;;;;;;;;;;8.30;1.00;;;;;;5013119;28;19917;-73
2023/12/10 01:48:41;;;;;;;;;;;8.40;1.00;;;;;;5012597;28;19928;-73
2023/12/10 01:51:08;;;;;;;;;;;8.30;1.00;;;;;;5014451;28;19917;-73
2023/12/10 01:53:45;;;;;;;;;;;8.40;1.00;;;;;;5025298;28;19941;-73
2023/12/10 01:56:21;;;;;;;;;;;8.40;1.00;;;;;;5013980;28;19910;-73
2023/12/10 01:58:50;;;;;;;;;;;8.40;1.00;;;;;;5013946;28;19910;-73
2023/12/10 02:01:17;;;;;;;;;;;8.40;1.00;;;;;;5021604;28;19913;-73
2023/12/10 02:03:45;;;;;;;;;;;8.40;1.00;;;;;;5022887;28;19909;-73
2023/12/10 02:06:33;;;;;;;;;;;8.40;1.00;;;;;;5014389;28;19999;-78
2023/12/10 02:15:17;;;;;;;;;;;8.20;1.00;;;;;;5029209;28;19998;-78
2023/12/10 02:20:52;;;;;;;;;;;;;;;;;;5008158;28;19971;-78
2023/12/10 02:32:27;;;;;;;;;;;8.40;1.00;;;;;;5016975;28;19921;-78
2023/12/10 02:34:53;;;;;;;;;;;8.60;1.00;;;;;;5016866;28;19913;-73
2023/12/10 02:37:18;;;;;;;;;;;8.60;1.00;;;;;;5024673;28;20004;-73
2023/12/10 02:39:45;;;;;;;;;;;8.70;1.00;;;;;;5027719;28;19921;-73
2023/12/10 02:42:10;;;;;;;;;;;8.80;1.00;;;;;;5023227;28;19953;-73
2023/12/10 02:44:36;;;;;;;;;;;8.90;1.00;;;;;;5017305;28;20067;-73
2023/12/10 02:47:02;;;;;;;;;;;8.80;1.00;;;;;;5015882;28;19936;-73
2023/12/10 02:49:28;;;;;;;;;;;8.80;1.00;;;;;;5029231;28;20011;-73
2023/12/10 02:58:00;;;;;;;;;;;8.80;1.00;;;;;;5018267;28;20301;-78
2023/12/10 03:00:26;;;;;;;;;;;8.70;1.00;;;;;;5017928;28;19911;-78
2023/12/10 03:08:58;;;;;;;;;;;8.80;1.00;;;;;;5016341;28;19960;-77
2023/12/10 03:14:27;;;;;;;;;;;8.70;1.00;;;;;;5024726;28;19960;-78
2023/12/10 03:17:14;;;;;;;;;;;8.70;1.00;;;;;;5020324;28;20299;-78
2023/12/10 03:19:51;;;;;;;;;;;8.60;1.00;;;;;;5015509;28;19923;-78
2023/12/10 03:22:21;;;;;;;;;;;8.60;1.00;;;;;;5024445;28;19959;-74
2023/12/10 03:25:09;;;;;;;;;;;8.60;1.00;;;;;;5029916;28;20004;-74
2023/12/10 03:27:35;;;;;;;;;;;8.50;1.00;;;;;;5016406;28;20372;-74
2023/12/10 03:30:08;;;;;;;;;;;;;;;;;;5016393;28;20268;-74
2023/12/10 03:32:38;;;;;;;;;;;8.30;1.00;;;;;;5023764;28;19918;-74
2023/12/10 03:35:09;;;;;;;;;;;8.20;1.00;;;;;;5004028;28;19913;-74
2023/12/10 03:37:38;;;;;;;;;;;;;;;;;;5016504;28;19910;-73
2023/12/10 03:40:04;;;;;;;;;;;8.10;1.00;;;;;;5016061;28;19916;-74
2023/12/10 03:42:33;;;;;;;;;;;8.00;1.00;;;;;;5017332;28;19917;-73
2023/12/10 03:45:03;;;;;;;;;;;7.90;1.00;;;;;;5015919;28;19917;-74
2023/12/10 03:47:28;;;;;;;;;;;7.90;1.00;;;;;;5037205;28;19996;-73
2023/12/10 03:49:57;;;;;;;;;;;7.90;1.00;;;;;;5014710;28;20013;-73
2023/12/10 03:52:39;;;;;;;;;;;7.90;1.00;;;;;;5011935;28;20008;-73
2023/12/10 03:55:05;;;;;;;;;;;8.00;1.00;;;;;;5024144;28;19926;-73
2023/12/10 03:57:30;;;;;;;;;;;8.00;1.00;;;;;;5015516;28;19936;-73
2023/12/10 03:59:56;;;;;;;;;;;8.10;1.00;;;;;;5015812;28;20334;-73
2023/12/10 04:02:33;;;;;;;;;;;8.20;1.00;;;;;;5015414;28;19936;-73
2023/12/10 04:04:58;;;;;;;;;;;8.30;1.00;;;;;;5014981;28;19984;-73
2023/12/10 04:07:32;;;;;;;;;;;8.40;1.00;;;;;;5026437;28;19913;-73
2023/12/10 04:09:58;;;;;;;;;;;8.50;1.00;;;;;;5015741;28;19917;-73
2023/12/10 04:12:27;;;;;;;;;;;8.50;1.00;;;;;;5015454;28;19917;-73
2023/12/10 04:14:53;;;;;;;;;;;8.50;1.00;;;;;;5015220;28;19917;-73
2023/12/10 04:17:18;;;;;;;;;;;8.60;1.00;;;;;;5019023;28;20277;-73
2023/12/10 04:19:44;;;;;;;;;;;8.60;1.00;;;;;;5015375;28;19916;-73
2023/12/10 04:22:10;;;;;;;;;;;8.60;1.00;;;;;;5015563;28;19979;-73
2023/12/10 04:24:35;;;;;;;;;;;8.60;1.00;;;;;;5020172;28;19971;-73
2023/12/10 04:27:03;;;;;;;;;;;8.60;1.00;;;;;;5033703;28;19913;-73
2023/12/10 04:29:28;;;;;;;;;;;8.60;1.00;;;;;;5029141;28;19932;-74
2023/12/10 04:31:54;;;;;;;;;;;8.50;1.00;;;;;;5014495;28;20250;-73
2023/12/10 04:34:27;;;;;;;;;;;8.60;1.00;;;;;;5014965;28;19922;-73
2023/12/10 04:39:55;;;;;;;;;;;8.60;1.00;;;;;;5014898;28;20031;-78
2023/12/10 04:42:51;;;;;;;;;;;8.60;1.00;;;;;;5026399;28;19951;-77
2023/12/10 04:48:19;;;;;;;;;;;8.50;1.00;;;;;;5024378;28;19944;-78
2023/12/10 04:50:44;;;;;;;;;;;8.50;1.00;;;;;;5014612;28;20354;-78
2023/12/10 04:53:14;;;;;;;;;;;8.50;1.00;;;;;;5017694;28;19920;-73
2023/12/10 04:55:40;;;;;;;;;;;;;;;;;;5016755;28;19917;-73
2023/12/10 04:58:06;;;;;;;;;;;8.60;1.00;;;;;;5023656;28;19992;-73
2023/12/10 05:00:33;;;;;;;;;;;;;;;;;;5025204;28;19910;-73
2023/12/10 05:03:03;;;;;;;;;;;8.60;1.00;;;;;;5016656;28;19972;-73
2023/12/10 05:05:28;;;;;;;;;;;8.60;1.00;;;;;;5020535;28;20303;-73
2023/12/10 05:07:57;;;;;;;;;;;8.60;1.00;;;;;;5027014;28;19917;-73
2023/12/10 05:10:33;;;;;;;;;;;8.60;1.00;;;;;;5006699;28;20008;-74
2023/12/10 05:12:58;;;;;;;;;;;8.50;1.00;;;;;;5014525;28;19925;-73
2023/12/10 05:15:24;;;;;;;;;;;8.60;1.00;;;;;;5014478;28;19909;-73
2023/12/10 05:17:58;;;;;;;;;;;8.60;1.00;;;;;;5030004;28;20025;-73
2023/12/10 05:20:24;;;;;;;;;;;8.60;1.00;;;;;;5014456;28;19916;-73
2023/12/10 05:22:50;;;;;;;;;;;8.50;1.00;;;;;;5014724;28;19918;-73
2023/12/10 05:25:21;;;;;;;;;;;8.50;1.00;;;;;;5016596;28;19917;-73
2023/12/10 05:27:46;;;;;;;;;;;8.50;1.00;;;;;;5014940;28;19920;-73
2023/12/10 05:30:12;;;;;;;;;;;8.60;1.00;;;;;;5014248;28;20004;-73
2023/12/10 05:32:37;;;;;;;;;;;8.50;1.00;;;;;;5016897;28;19961;-73
2023/12/10 05:35:04;;;;;;;;;;;8.50;1.00;;;;;;5021290;28;19963;-73
2023/12/10 05:37:30;;;;;;;;;;;8.40;1.00;;;;;;5014616;28;19920;-73
2023/12/10 05:40:03;;;;;;;;;;;8.30;1.00;;;;;;5014486;28;19914;-73
2023/12/10 05:42:28;;;;;;;;;;;8.40;1.00;;;;;;5001399;28;20253;-73
2023/12/10 05:44:57;;;;;;;;;;;8.30;1.00;;;;;;5013207;28;19909;-73
2023/12/10 05:47:23;;;;;;;;;;;8.30;1.00;;;;;;5017432;28;19921;-74
2023/12/10 05:49:50;;;;;;;;;;;8.20;1.00;;;;;;5026096;28;20140;-74
2023/12/10 05:52:16;;;;;;;;;;;8.20;1.00;;;;;;5013912;28;19909;-74
2023/12/10 05:54:41;;;;;;;;;;;8.30;1.00;;;;;;5026940;28;19913;-74
2023/12/10 05:57:07;;;;;;;;;;;8.30;1.00;;;;;;5017548;28;19913;-74
2023/12/10 05:59:45;;;;;;;;;;;8.20;1.00;;;;;;5018275;28;19914;-74
2023/12/10 06:02:15;;;;;;;;;;;8.20;1.00;;;;;;5025029;28;20245;-73
2023/12/10 06:04:41;;;;;;;;;;;8.30;1.00;;;;;;5022064;28;19972;-73
2023/12/10 06:07:07;;;;;;;;;;;8.20;1.00;;;;;;5009110;28;19916;-77
2023/12/10 06:09:33;;;;;;;;;;;8.10;1.00;;;;;;5024911;28;19910;-78
2023/12/10 06:11:58;;;;;;;;;;;8.20;1.00;;;;;;5016469;28;20004;-78
2023/12/10 06:17:39;;;;;;;;;;;8.30;1.00;;;;;;5021921;28;19973;-77
2023/12/10 06:20:05;;;;;;;;;;;8.30;1.00;;;;;;5017674;28;19913;-78
2023/12/10 06:22:45;;;;;;;;;;;8.40;1.00;;;;;;5023193;28;19968;-73
2023/12/10 06:25:11;;;;;;;;;;;8.40;1.00;;;;;;5018814;28;19917;-73
2023/12/10 06:27:36;;;;;;;;;;;8.50;1.00;;;;;;5017488;28;20258;-73
2023/12/10 06:33:38;;;;;;;;;;;8.60;1.00;;;;;;5019583;28;20007;-78
2023/12/10 06:38:50;;;;;;;;;;;8.60;1.00;;;;;;5017045;28;19925;-82
2023/12/10 06:44:24;;;;;;;;;;;8.70;1.00;;;;;;4970938;28;19960;-83
2023/12/10 06:47:18;;;;;;;;;;;8.80;1.00;;;;;;4975926;28;20134;-83
2023/12/10 06:49:44;;;;;;;;;;;8.80;1.00;;;;;;4992173;28;20392;-81
2023/12/10 06:52:10;;;;;;;;;;;8.80;1.00;;;;;;4991608;28;19974;-81
2023/12/10 06:55:02;;;;;;;;;;;8.80;1.00;;;;;;4976123;28;20342;-77
2023/12/10 07:00:51;;;;;;;;;;;8.90;1.00;;;;;;4964009;28;19929;-78
2023/12/10 07:06:26;;;;;;;;;;;8.90;1.00;;;;;;4976258;28;19921;-95
2023/12/10 07:14:57;;;;;;;;;;;8.70;1.00;;;;;;4976514;28;19957;-94
2023/12/10 07:20:25;;;;;;;;;;;8.70;1.00;;;;;;4976425;28;19937;-94
2023/12/10 07:25:53;;;;;;;;;;;8.70;1.00;;;;;;4976329;28;19917;-95
2023/12/10 07:28:51;;;;;;;;;;;8.70;1.00;;;;;;4975508;28;20294;-95
2023/12/10 07:31:39;;;;;;;;;;;8.70;1.00;;;;;;4990853;28;19920;-95
2023/12/10 07:40:11;;;;;;;;;;;8.70;1.00;;;;;;5017063;28;20019;-95
2023/12/10 07:45:39;;;;;;;;;;;8.70;1.00;;;;;;5017036;28;19916;-83
2023/12/10 07:48:04;;;;;;;;;;;8.70;1.00;;;;;;5006139;28;19917;-83
2023/12/10 07:50:30;;;;;;;;;;;8.80;1.00;;;;;;5039439;28;19944;-81
2023/12/10 07:53:09;;;;;;;;;;;8.80;1.00;;;;;;5015793;28;19914;-85
2023/12/10 07:56:09;;;;;;;;;;;8.80;1.00;;;;;;4995302;28;19920;-79
2023/12/10 08:07:25;;;;;;;;;;;9.20;1.00;;;;;;5011779;28;20293;-83
2023/12/10 08:19:21;;;;;;;;;;;9.40;1.00;;;;;;5014173;28;19933;-80
2023/12/10 08:27:52;;;;;;;;;;;9.60;1.00;;;;;;5014871;28;20356;-79
2023/12/10 08:33:39;;;;;;;;;;;9.50;1.00;;;;;;5014195;28;20056;-79
2023/12/10 08:39:09;;;;;;;;;;;9.70;1.00;;;;;;5013476;28;19983;-79
2023/12/10 08:42:09;;;;;;;;;;;9.70;1.00;;;;;;5015076;28;19917;-80
2023/12/10 08:44:34;;;;;;;;;;;9.70;1.00;;;;;;5014939;28;19909;-73
2023/12/10 08:47:00;;;;;;;;;;;9.70;1.00;;;;;;5014833;28;19913;-73
2023/12/10 08:49:27;;;;;;;;;;;9.70;1.00;;;;;;5013942;28;20265;-74
2023/12/10 08:51:52;;;;;;;;;;;9.80;1.00;;;;;;5014833;28;19917;-74
2023/12/10 08:54:45;;;;;;;;;;;9.80;1.00;;;;;;5015251;28;19921;-77
2023/12/10 09:03:27;;;;;;;;;;;9.90;1.00;;;;;;4999118;28;19936;-74
2023/12/10 09:05:53;;;;;;;;;;;;;;;;;;5014713;28;19996;-75
2023/12/10 09:08:27;;;;;;;;;;;10.00;1.00;;;;;;5015239;28;19925;-75
2023/12/10 09:10:53;;;;;;;;;;;10.00;1.00;;;;;;5014860;28;19910;-75
2023/12/10 09:13:19;;;;;;;;;;;10.00;1.00;;;;;;5014481;28;19914;-75
2023/12/10 09:15:51;;;;;;;;;;;10.10;1.00;;;;;;5014293;28;20400;-75
2023/12/10 09:18:21;;;;;;;;;;;;;;;;;;5012387;28;19914;-75
2023/12/10 09:20:54;;;;;;;;;;;10.20;1.00;;;;;;5012418;28;19913;-75
2023/12/10 09:23:21;;;;;;;;;;;10.10;1.00;;;;;;5014395;28;19940;-74
2023/12/10 09:26:09;;;;;;;;;;;10.20;1.00;;;;;;5014306;28;19914;-76
2023/12/10 09:28:34;;;;;;;;;;;10.10;1.00;;;;;;5013971;28;19959;-76
2023/12/10 09:31:09;;;;;;;;;;;10.00;1.00;;;;;;5013160;28;19917;-76
2023/12/10 09:36:37;;;;;;;;;;;10.20;1.00;;;;;;5017037;28;19925;-76
2023/12/10 09:42:21;;;;;;;;;;;10.20;1.00;;;;;;5003595;28;19932;-76
2023/12/10 09:45:03;;;;;;;;;;;10.40;1.00;;;;;;5013782;28;19910;-77
2023/12/10 09:47:29;;;;;;;;;;;10.40;1.00;;;;;;5014094;28;20405;-76
2023/12/10 09:56:09;;;;;;;;;;;10.50;1.00;;;;;;5016843;28;19927;-75
2023/12/10 09:58:35;;;;;;;;;;;10.50;1.00;;;;;;5014196;28;19910;-75
2023/12/10 10:01:06;;;;;;;;;;;10.60;1.00;;;;;;5013890;28;20060;-75
2023/12/10 10:03:34;;;;;;;;;;;10.60;1.00;;;;;;5015207;28;19960;-75
2023/12/10 10:06:09;;;;;;;;;;;10.60;1.00;;;;;;5016651;28;19909;-76
2023/12/10 10:15:03;;;;;;;;;;;10.60;1.00;;;;;;5013549;28;19917;-76
2023/12/10 10:20:51;;;;;;;;;;;10.70;1.00;;;;;;5013814;28;19920;-75
2023/12/10 10:23:17;;;;;;;;;;;10.70;1.00;;;;;;5014855;28;20265;-75
2023/12/10 10:25:43;;;;;;;;;;;10.70;1.00;;;;;;5021342;28;19927;-75
2023/12/10 10:28:09;;;;;;;;;;;10.70;1.00;;;;;;5017793;28;19909;-75
2023/12/10 10:30:39;;;;;;;;;;;10.60;1.00;;;;;;5003936;28;20005;-78
2023/12/10 10:33:05;;;;;;;;;;;10.70;1.00;;;;;;5015463;28;19926;-77
2023/12/10 10:35:39;;;;;;;;;;;10.80;1.00;;;;;;5008427;28;20289;-76
2023/12/10 10:38:16;;;;;;;;;;;10.90;1.00;;;;;;5013557;28;19910;-76
2023/12/10 10:40:45;;;;;;;;;;;11.10;1.00;;;;;;5014597;28;19913;-73
2023/12/10 10:43:10;;;;;;;;;;;11.10;1.00;;;;;;5017223;28;19940;-73
2023/12/10 10:45:36;;;;;;;;;;;11.10;1.00;;;;;;5017231;28;19911;-74
2023/12/10 10:48:02;;;;;;;;;;;11.10;1.00;;;;;;5016648;28;20420;-74
2023/12/10 10:50:28;;;;;;;;;;;11.10;1.00;;;;;;5029289;28;19921;-74
2023/12/10 10:52:54;;;;;;;;;;;11.10;1.00;;;;;;5022301;28;20487;-74
2023/12/10 10:58:24;;;;;;;;;;;11.30;1.00;;;;;;5012122;28;20005;-77
2023/12/10 11:00:51;;;;;;;;;;;11.30;1.00;;;;;;5020980;28;19916;-76
2023/12/10 11:03:17;;;;;;;;;;;11.40;1.00;;;;;;5014805;28;19909;-75
2023/12/10 11:09:03;;;;;;;;;;;11.70;1.00;;;;;;5026258;28;19915;-78
2023/12/10 11:15:09;;;;;;;;;;;11.70;1.00;;;;;;5019786;28;19920;-79
2023/12/10 11:18:11;;;;;;;;;;;11.70;1.00;;;;;;5011459;28;19913;-76
2023/12/10 11:20:43;;;;;;;;;;;11.70;1.00;;;;;;4994741;28;19968;-78
2023/12/10 11:23:33;;;;;;;;;;;11.70;1.00;;;;;;4991830;28;20022;-77
2023/12/10 11:26:21;;;;;;;;;;;11.90;1.00;;;;;;4975167;28;19914;-79
2023/12/10 11:31:49;;;;;;;;;;;11.90;1.00;;;;;;4991091;28;19916;-77
2023/12/10 11:34:14;;;;;;;;;;;11.90;1.00;;;;;;5002363;28;19914;-77
2023/12/10 11:36:44;;;;;;;;;;;12.00;1.00;;;;;;4993967;28;20012;-78
2023/12/10 11:39:21;;;;;;;;;;;11.90;1.00;;;;;;4988236;28;19914;-78
2023/12/10 11:42:09;;;;;;;;;;;11.90;1.00;;;;;;4994964;28;20353;-76
2023/12/10 11:44:34;;;;;;;;;;;12.00;1.00;;;;;;4994725;28;19993;-77
2023/12/10 11:47:17;;;;;;;;;;;12.00;1.00;;;;;;4994453;28;19918;-76
2023/12/10 11:49:43;;;;;;;;;;;12.00;1.00;;;;;;4978071;28;20333;-77
2023/12/10 11:52:39;;;;;;;;;;;12.10;1.00;;;;;;4974305;28;19914;-76
2023/12/10 11:55:09;;;;;;;;;;;12.20;1.00;;;;;;5007176;28;19913;-73
2023/12/10 12:00:37;;;;;;;;;;;12.20;1.00;;;;;;5015826;28;19959;-80
2023/12/10 12:03:09;;;;;;;;;;;12.30;1.00;;;;;;5013569;28;19918;-79
2023/12/10 12:05:39;;;;;;;;;;;12.30;1.00;;;;;;5013420;28;19964;-80
2023/12/10 12:08:09;;;;;;;;;;;12.30;1.00;;;;;;5015283;28;19917;-77
2023/12/10 12:10:45;;;;;;;;;;;11.80;1.00;;;;;;5018145;28;19920;-79
2023/12/10 12:13:11;;;;;;;;;;;11.90;1.00;;;;;;5015362;28;20020;-73
2023/12/10 12:15:43;;;;;;;;;;;11.90;1.00;;;;;;5015077;28;19968;-79
2023/12/10 12:18:09;;;;;;;;;;;12.00;1.00;;;;;;5015326;28;19959;-77
2023/12/10 12:20:51;;;;;;;;;;;12.00;1.00;;;;;;5015237;28;19917;-77
2023/12/10 12:23:27;;;;;;;;;;;12.00;1.00;;;;;;5015117;28;20396;-77
2023/12/10 12:26:09;;;;;;;;;;;11.90;1.00;;;;;;5015073;28;19913;-77
2023/12/10 12:28:57;;;;;;;;;;;11.80;1.00;;;;;;5015332;28;19910;-77
2023/12/10 12:31:57;;;;;;;;;;;11.80;1.00;;;;;;5014786;28;20008;-77
2023/12/10 12:34:39;;;;;;;;;;;;;;;;;;5014543;28;19924;-76
2023/12/10 12:37:39;;;;;;;;;;;11.80;1.00;;;;;;5015240;28;19910;-76
2023/12/10 12:40:21;;;;;;;;;;;11.80;1.00;;;;;;5015165;28;19909;-77
2023/12/10 12:46:03;;;;;;;;;;;11.70;1.00;;;;;;5024616;28;20004;-78
2023/12/10 12:48:39;;;;;;;;;;;11.60;1.00;;;;;;5014814;28;19960;-78
2023/12/10 12:54:39;;;;;;;;;;;11.50;1.00;;;;;;5005885;28;19985;-78
2023/12/10 12:57:21;;;;;;;;;;;11.40;1.00;;;;;;5015023;28;19909;-77
2023/12/10 13:02:51;;;;;;;;;;;11.30;1.00;;;;;;5023637;28;20332;-77
2023/12/10 13:05:51;;;;;;;;;;;11.30;1.00;;;;;;5013991;28;19920;-78
2023/12/10 13:08:23;;;;;;;;;;;11.20;1.00;;;;;;5016609;28;19913;-78
2023/12/10 13:11:09;;;;;;;;;;;11.20;1.00;;;;;;5021182;28;19913;-79
2023/12/10 13:13:34;;;;;;;;;;;11.40;1.00;;;;;;5014847;28;19921;-74
2023/12/10 13:22:09;;;;;;;;;;;11.30;1.00;;;;;;5022905;28;19967;-76
2023/12/10 13:25:04;;;;;;;;;;;11.20;1.00;;;;;;5000066;28;20320;-75
2023/12/10 13:27:51;;;;;;;;;;;11.10;1.00;;;;;;5014834;28;19983;-75
2023/12/10 13:30:17;;;;;;;;;;;11.10;1.00;;;;;;5014041;28;19916;-75
2023/12/10 13:32:45;;;;;;;;;;;11.10;1.00;;;;;;5014301;28;19964;-75
2023/12/10 13:35:11;;;;;;;;;;;;;;;;;;5013765;28;19924;-75
2023/12/10 13:37:39;;;;;;;;;;;11.00;1.00;;;;;;5016939;28;19917;-75
2023/12/10 13:40:15;;;;;;;;;;;11.00;1.00;;;;;;5028769;28;19963;-75
2023/12/10 13:42:57;;;;;;;;;;;11.00;1.00;;;;;;5031203;28;19918;-75
2023/12/10 13:45:39;;;;;;;;;;;10.90;1.00;;;;;;5012329;28;19913;-75
2023/12/10 13:48:05;;;;;;;;;;;10.80;1.00;;;;;;5014319;28;19918;-75
2023/12/10 13:50:31;;;;;;;;;;;10.80;1.00;;;;;;5018021;28;19928;-75
2023/12/10 13:52:58;;;;;;;;;;;10.80;1.00;;;;;;5014171;28;20015;-75
2023/12/10 13:55:39;;;;;;;;;;;10.80;1.00;;;;;;5014288;28;19996;-75
2023/12/10 13:58:09;;;;;;;;;;;10.80;1.00;;;;;;5014653;28;19913;-72
2023/12/10 14:00:34;;;;;;;;;;;10.80;1.00;;;;;;5014538;28;19913;-72
2023/12/10 14:03:03;;;;;;;;;;;10.70;1.00;;;;;;5014103;28;19940;-72
2023/12/10 14:05:33;;;;;;;;;;;10.70;1.00;;;;;;5012918;28;19913;-72
2023/12/10 14:08:03;;;;;;;;;;;10.70;1.00;;;;;;5013955;28;20333;-73
2023/12/10 14:10:29;;;;;;;;;;;10.70;1.00;;;;;;5013907;28;20000;-72
2023/12/10 14:13:09;;;;;;;;;;;10.60;1.00;;;;;;5014264;28;20007;-75
2023/12/10 14:15:39;;;;;;;;;;;10.60;1.00;;;;;;5002068;28;19910;-75
2023/12/10 14:18:04;;;;;;;;;;;10.70;1.00;;;;;;5017805;28;19916;-76
2023/12/10 14:20:33;;;;;;;;;;;10.70;1.00;;;;;;5017583;28;19937;-76
2023/12/10 14:22:59;;;;;;;;;;;10.70;1.00;;;;;;5017835;28;19914;-75
2023/12/10 14:25:24;;;;;;;;;;;10.60;1.00;;;;;;5017677;28;19910;-75
2023/12/10 14:27:50;;;;;;;;;;;10.60;1.00;;;;;;5016045;28;19936;-75
2023/12/10 14:30:21;;;;;;;;;;;10.60;1.00;;;;;;5017512;28;19960;-76
2023/12/10 14:33:09;;;;;;;;;;;10.60;1.00;;;;;;5017324;28;19979;-77
2023/12/10 14:36:09;;;;;;;;;;;10.60;1.00;;;;;;5017247;28;19909;-77
2023/12/10 14:38:39;;;;;;;;;;;10.40;1.00;;;;;;5016842;28;19964;-75
2023/12/10 14:41:09;;;;;;;;;;;10.40;1.00;;;;;;5017502;28;20258;-78
2023/12/10 14:43:45;;;;;;;;;;;10.30;1.00;;;;;;5017626;28;19909;-77
2023/12/10 14:46:11;;;;;;;;;;;10.20;1.00;;;;;;5012473;28;19913;-74
2023/12/10 14:48:37;;;;;;;;;;;10.20;1.00;;;;;;5015999;28;19917;-75
2023/12/10 14:51:02;;;;;;;;;;;10.30;1.00;;;;;;5020235;28;19917;-75
2023/12/10 14:53:28;;;;;;;;;;;10.30;1.00;;;;;;5027942;28;19979;-75
2023/12/10 14:55:54;;;;;;;;;;;10.20;1.00;;;;;;5017007;28;20403;-75
2023/12/10 14:58:20;;;;;;;;;;;;;;;;;;5017379;28;19910;-73
2023/12/10 15:00:46;;;;;;;;;;;10.20;1.00;;;;;;5016826;28;19914;-72
2023/12/10 15:03:13;;;;;;;;;;;10.20;1.00;;;;;;5016643;28;19914;-73
2023/12/10 15:05:38;;;;;;;;;;;10.30;1.00;;;;;;5016456;28;19997;-72
2023/12/10 15:08:04;;;;;;;;;;;10.30;1.00;;;;;;5024704;28;20008;-73
2023/12/10 15:10:33;;;;;;;;;;;10.40;1.00;;;;;;5016657;28;19914;-74
2023/12/10 15:12:59;;;;;;;;;;;10.30;1.00;;;;;;5016939;28;19952;-73
2023/12/10 15:15:24;;;;;;;;;;;10.40;1.00;;;;;;5016053;28;19914;-74
2023/12/10 15:17:53;;;;;;;;;;;10.30;1.00;;;;;;5015960;28;19914;-74
2023/12/10 15:20:19;;;;;;;;;;;10.40;1.00;;;;;;5024841;28;19914;-74
2023/12/10 15:22:46;;;;;;;;;;;10.30;1.00;;;;;;5016420;28;19959;-74
2023/12/10 15:25:11;;;;;;;;;;;10.30;1.00;;;;;;5031007;28;19964;-72
2023/12/10 15:27:38;;;;;;;;;;;10.30;1.00;;;;;;5014983;28;20381;-72
2023/12/10 15:30:09;;;;;;;;;;;10.30;1.00;;;;;;5016407;28;19914;-72
2023/12/10 15:32:35;;;;;;;;;;;10.30;1.00;;;;;;5015911;28;19921;-73
2023/12/10 15:35:03;;;;;;;;;;;10.30;1.00;;;;;;5016248;28;19913;-73
2023/12/10 15:37:39;;;;;;;;;;;10.30;1.00;;;;;;5016873;28;19964;-83
2023/12/10 15:40:33;;;;;;;;;;;10.30;1.00;;;;;;5016188;28;19988;-83
2023/12/10 15:43:09;;;;;;;;;;;10.20;1.00;;;;;;4998753;28;19909;-84
2023/12/10 15:45:39;;;;;;;;;;;10.20;1.00;;;;;;4998827;28;19996;-84
2023/12/10 15:48:05;;;;;;;;;;;10.30;1.00;;;;;;4997902;28;19925;-84
2023/12/10 15:50:33;;;;;;;;;;;10.30;1.00;;;;;;5015912;28;20396;-73
2023/12/10 15:53:00;;;;;;;;;;;10.20;1.00;;;;;;5015782;28;19963;-72
2023/12/10 15:55:25;;;;;;;;;;;10.20;1.00;;;;;;5015689;28;19909;-72
2023/12/10 15:57:57;;;;;;;;;;;10.10;1.00;;;;;;5016513;28;19925;-72
2023/12/10 16:00:23;;;;;;;;;;;10.10;1.00;;;;;;5016046;28;19916;-72
2023/12/10 16:02:48;;;;;;;;;;;10.10;1.00;;;;;;5015707;28;19913;-72
2023/12/10 16:05:15;;;;;;;;;;;10.10;1.00;;;;;;5015597;28;20002;-72
2023/12/10 16:07:41;;;;;;;;;;;10.00;1.00;;;;;;5015425;28;19914;-72
2023/12/10 16:10:07;;;;;;;;;;;10.00;1.00;;;;;;5018401;28;20379;-72
2023/12/10 16:12:32;;;;;;;;;;;9.90;1.00;;;;;;5021241;28;19920;-73
2023/12/10 16:15:09;;;;;;;;;;;9.90;1.00;;;;;;5016003;28;19913;-75
2023/12/10 16:17:39;;;;;;;;;;;10.00;1.00;;;;;;5018134;28;19913;-75
2023/12/10 16:20:27;;;;;;;;;;;9.90;1.00;;;;;;5011573;28;19914;-76
2023/12/10 16:22:52;;;;;;;;;;;9.90;1.00;;;;;;5013957;28;19917;-76
2023/12/10 16:25:21;;;;;;;;;;;9.90;1.00;;;;;;5022407;28;20383;-76
2023/12/10 16:27:57;;;;;;;;;;;9.90;1.00;;;;;;5015745;28;20044;-76
2023/12/10 16:30:23;;;;;;;;;;;9.90;1.00;;;;;;5015353;28;19913;-73
2023/12/10 16:32:48;;;;;;;;;;;9.90;1.00;;;;;;4997428;28;19920;-73
2023/12/10 16:35:14;;;;;;;;;;;9.90;1.00;;;;;;5015092;28;20005;-76
2023/12/10 16:38:09;;;;;;;;;;;9.90;1.00;;;;;;5025005;28;19996;-75
2023/12/10 16:40:39;;;;;;;;;;;9.90;1.00;;;;;;5015313;28;20394;-76
2023/12/10 16:43:06;;;;;;;;;;;9.90;1.00;;;;;;5014910;28;19921;-75
2023/12/10 16:45:31;;;;;;;;;;;9.90;1.00;;;;;;5001850;28;19936;-71
2023/12/10 16:47:57;;;;;;;;;;;9.80;1.00;;;;;;5013328;28;20357;-71
2023/12/10 16:50:22;;;;;;;;;;;9.80;1.00;;;;;;5012919;28;20034;-71
2023/12/10 16:52:48;;;;;;;;;;;9.90;1.00;;;;;;5014604;28;19961;-71
2023/12/10 16:55:14;;;;;;;;;;;9.80;1.00;;;;;;5014580;28;19920;-71
2023/12/10 16:57:40;;;;;;;;;;;;;;;;;;5014073;28;19919;-71
2023/12/10 17:00:06;;;;;;;;;;;9.80;1.00;;;;;;5014586;28;20432;-71
2023/12/10 17:02:31;;;;;;;;;;;9.80;1.00;;;;;;5013282;28;19921;-72
2023/12/10 17:05:11;;;;;;;;;;;9.80;1.00;;;;;;5013702;28;19996;-82
2023/12/10 17:08:09;;;;;;;;;;;9.70;1.00;;;;;;5014581;28;20272;-84
2023/12/10 17:11:03;;;;;;;;;;;9.80;1.00;;;;;;5014490;28;19916;-82
2023/12/10 17:14:03;;;;;;;;;;;9.80;1.00;;;;;;5014642;28;19914;-83
2023/12/10 17:16:45;;;;;;;;;;;9.80;1.00;;;;;;5014593;28;19917;-82
2023/12/10 17:19:39;;;;;;;;;;;9.90;1.00;;;;;;5012396;28;19932;-81
2023/12/10 17:22:10;;;;;;;;;;;9.80;1.00;;;;;;5014222;28;20004;-80
2023/12/10 17:24:40;;;;;;;;;;;9.80;1.00;;;;;;5020234;28;19985;-78
2023/12/10 17:27:39;;;;;;;;;;;9.80;1.00;;;;;;5014170;28;19952;-79
2023/12/10 17:30:21;;;;;;;;;;;9.90;1.00;;;;;;5014560;28;20008;-78
2023/12/10 17:33:09;;;;;;;;;;;9.90;1.00;;;;;;5014184;28;19916;-81
2023/12/10 17:35:39;;;;;;;;;;;9.90;1.00;;;;;;5014352;28;19964;-79
2023/12/10 17:38:09;;;;;;;;;;;9.90;1.00;;;;;;5014262;28;19914;-78
2023/12/10 17:41:09;;;;;;;;;;;10.00;1.00;;;;;;5014179;28;19956;-79
2023/12/10 17:44:09;;;;;;;;;;;9.90;1.00;;;;;;5014151;28;19910;-79
2023/12/10 17:46:45;;;;;;;;;;;9.90;1.00;;;;;;5014460;28;19917;-79
2023/12/10 17:52:09;;;;;;;;;;;9.90;1.00;;;;;;5016084;28;19925;-79
2023/12/10 17:54:39;;;;;;;;;;;9.90;1.00;;;;;;5035473;28;19917;-79
2023/12/10 17:57:39;;;;;;;;;;;9.80;1.00;;;;;;5025882;28;19910;-80
2023/12/10 18:00:27;;;;;;;;;;;9.90;1.00;;;;;;5018338;28;19909;-78
2023/12/10 18:05:56;;;;;;;;;;;9.90;1.00;;;;;;5018161;28;19968;-77
2023/12/10 18:08:39;;;;;;;;;;;9.90;1.00;;;;;;5017813;28;19913;-79
2023/12/10 18:11:09;;;;;;;;;;;9.80;1.00;;;;;;5017708;28;19914;-79
2023/12/10 18:14:09;;;;;;;;;;;9.90;1.00;;;;;;5017704;28;19961;-80
2023/12/10 18:16:39;;;;;;;;;;;9.90;1.00;;;;;;5017851;28;19916;-80
2023/12/10 18:19:39;;;;;;;;;;;10.00;1.00;;;;;;5016960;28;19913;-79
2023/12/10 18:22:09;;;;;;;;;;;9.90;1.00;;;;;;5023338;28;20008;-80
2023/12/10 18:24:39;;;;;;;;;;;9.90;1.00;;;;;;5033264;28;19910;-79
2023/12/10 18:27:09;;;;;;;;;;;9.90;1.00;;;;;;5017680;28;19925;-78